sensor_id;sensor_type;location;lat;lon;timestamp;temperature;humidity
40868;DHT22;26586;50.708;22.412;2023-03-23T00:02:25;17.40;48.80
40868;DHT22;26586;50.708;22.412;2023-03-23T00:04:51;17.40;48.40
40868;DHT22;26586;50.708;22.412;2023-03-23T00:07:19;17.40;48.00
40868;DHT22;26586;50.708;22.412;2023-03-23T00:09:47;17.30;48.00
40868;DHT22;26586;50.708;22.412;2023-03-23T00:12:19;17.40;48.10
40868;DHT22;26586;50.708;22.412;2023-03-23T00:14:45;17.40;48.20
40868;DHT22;26586;50.708;22.412;2023-03-23T00:17:11;17.40;48.50
40868;DHT22;26586;50.708;22.412;2023-03-23T00:19:40;17.30;48.60
40868;DHT22;26586;50.708;22.412;2023-03-23T00:22:15;17.30;48.60
40868;DHT22;26586;50.708;22.412;2023-03-23T00:24:42;17.30;48.10
40868;DHT22;26586;50.708;22.412;2023-03-23T00:27:09;17.30;47.90
40868;DHT22;26586;50.708;22.412;2023-03-23T00:29:38;17.30;47.70
40868;DHT22;26586;50.708;22.412;2023-03-23T00:32:05;17.30;47.90
40868;DHT22;26586;50.708;22.412;2023-03-23T00:34:31;17.30;48.00
40868;DHT22;26586;50.708;22.412;2023-03-23T00:36:59;17.20;48.20
40868;DHT22;26586;50.708;22.412;2023-03-23T00:39:26;17.20;48.20
40868;DHT22;26586;50.708;22.412;2023-03-23T00:41:53;17.20;48.00
40868;DHT22;26586;50.708;22.412;2023-03-23T00:44:20;17.20;48.30
40868;DHT22;26586;50.708;22.412;2023-03-23T00:46:49;17.20;48.10
40868;DHT22;26586;50.708;22.412;2023-03-23T00:49:19;17.20;48.20
40868;DHT22;26586;50.708;22.412;2023-03-23T00:51:45;17.20;49.20
40868;DHT22;26586;50.708;22.412;2023-03-23T00:54:12;17.20;50.20
40868;DHT22;26586;50.708;22.412;2023-03-23T00:56:38;17.20;50.40
40868;DHT22;26586;50.708;22.412;2023-03-23T00:59:07;17.20;50.30
40868;DHT22;26586;50.708;22.412;2023-03-23T01:01:34;17.10;50.60
40868;DHT22;26586;50.708;22.412;2023-03-23T01:04:01;17.20;50.70
40868;DHT22;26586;50.708;22.412;2023-03-23T01:06:30;17.10;50.70
40868;DHT22;26586;50.708;22.412;2023-03-23T01:08:57;17.10;49.90
40868;DHT22;26586;50.708;22.412;2023-03-23T01:11:24;17.10;49.30
40868;DHT22;26586;50.708;22.412;2023-03-23T01:13:51;17.10;48.90
40868;DHT22;26586;50.708;22.412;2023-03-23T01:16:17;17.10;49.20
40868;DHT22;26586;50.708;22.412;2023-03-23T01:18:43;17.10;48.90
40868;DHT22;26586;50.708;22.412;2023-03-23T01:21:10;17.10;48.70
40868;DHT22;26586;50.708;22.412;2023-03-23T01:23:37;17.00;48.40
40868;DHT22;26586;50.708;22.412;2023-03-23T01:26:04;17.00;48.30
40868;DHT22;26586;50.708;22.412;2023-03-23T01:28:30;17.00;48.50
40868;DHT22;26586;50.708;22.412;2023-03-23T01:31:00;17.00;48.20
40868;DHT22;26586;50.708;22.412;2023-03-23T01:33:28;17.00;48.20
40868;DHT22;26586;50.708;22.412;2023-03-23T01:35:54;17.00;48.40
40868;DHT22;26586;50.708;22.412;2023-03-23T01:38:21;17.00;49.00
40868;DHT22;26586;50.708;22.412;2023-03-23T01:40:47;17.00;49.30
40868;DHT22;26586;50.708;22.412;2023-03-23T01:43:14;16.90;49.30
40868;DHT22;26586;50.708;22.412;2023-03-23T01:45:40;16.90;49.20
40868;DHT22;26586;50.708;22.412;2023-03-23T01:50:47;16.90;49.00
40868;DHT22;26586;50.708;22.412;2023-03-23T01:53:14;16.90;48.70
40868;DHT22;26586;50.708;22.412;2023-03-23T01:55:41;16.90;49.30
40868;DHT22;26586;50.708;22.412;2023-03-23T01:58:09;16.90;49.30
40868;DHT22;26586;50.708;22.412;2023-03-23T02:00:37;16.80;49.70
40868;DHT22;26586;50.708;22.412;2023-03-23T02:03:08;16.90;49.80
40868;DHT22;26586;50.708;22.412;2023-03-23T02:05:39;16.80;49.90
40868;DHT22;26586;50.708;22.412;2023-03-23T02:08:06;16.80;49.90
40868;DHT22;26586;50.708;22.412;2023-03-23T02:10:34;16.80;50.20
40868;DHT22;26586;50.708;22.412;2023-03-23T02:13:02;16.80;51.20
40868;DHT22;26586;50.708;22.412;2023-03-23T02:15:32;16.80;52.50
40868;DHT22;26586;50.708;22.412;2023-03-23T02:18:08;16.80;53.00
40868;DHT22;26586;50.708;22.412;2023-03-23T02:23:27;16.80;52.40
40868;DHT22;26586;50.708;22.412;2023-03-23T02:36:45;16.70;49.70
40868;DHT22;26586;50.708;22.412;2023-03-23T02:39:13;16.70;49.70
40868;DHT22;26586;50.708;22.412;2023-03-23T02:41:51;16.70;49.50
40868;DHT22;26586;50.708;22.412;2023-03-23T02:44:19;16.70;49.50
40868;DHT22;26586;50.708;22.412;2023-03-23T02:46:46;16.70;50.30
40868;DHT22;26586;50.708;22.412;2023-03-23T02:49:14;16.70;50.80
40868;DHT22;26586;50.708;22.412;2023-03-23T02:51:41;16.70;50.50
40868;DHT22;26586;50.708;22.412;2023-03-23T02:54:09;16.70;53.30
40868;DHT22;26586;50.708;22.412;2023-03-23T02:56:35;16.70;51.80
40868;DHT22;26586;50.708;22.412;2023-03-23T02:59:02;16.70;52.10
40868;DHT22;26586;50.708;22.412;2023-03-23T03:03:54;16.70;51.60
40868;DHT22;26586;50.708;22.412;2023-03-23T03:09:04;16.70;51.30
40868;DHT22;26586;50.708;22.412;2023-03-23T03:11:33;16.60;51.40
40868;DHT22;26586;50.708;22.412;2023-03-23T03:14:03;16.60;51.30
40868;DHT22;26586;50.708;22.412;2023-03-23T03:16:46;16.60;50.80
40868;DHT22;26586;50.708;22.412;2023-03-23T03:19:16;16.60;51.30
40868;DHT22;26586;50.708;22.412;2023-03-23T03:21:44;16.60;50.80
40868;DHT22;26586;50.708;22.412;2023-03-23T03:24:14;16.60;50.70
40868;DHT22;26586;50.708;22.412;2023-03-23T03:26:42;16.60;50.70
40868;DHT22;26586;50.708;22.412;2023-03-23T03:29:17;16.60;51.20
40868;DHT22;26586;50.708;22.412;2023-03-23T03:31:45;16.60;51.10
40868;DHT22;26586;50.708;22.412;2023-03-23T03:34:12;16.60;50.80
40868;DHT22;26586;50.708;22.412;2023-03-23T03:36:44;16.60;51.40
40868;DHT22;26586;50.708;22.412;2023-03-23T03:39:12;16.60;51.10
40868;DHT22;26586;50.708;22.412;2023-03-23T03:41:40;16.60;51.10
40868;DHT22;26586;50.708;22.412;2023-03-23T03:44:07;16.60;50.60
40868;DHT22;26586;50.708;22.412;2023-03-23T03:46:33;16.60;50.70
40868;DHT22;26586;50.708;22.412;2023-03-23T03:49:00;16.60;51.40
40868;DHT22;26586;50.708;22.412;2023-03-23T03:51:27;16.50;50.80
40868;DHT22;26586;50.708;22.412;2023-03-23T03:53:53;16.60;50.00
40868;DHT22;26586;50.708;22.412;2023-03-23T03:56:19;16.60;50.00
40868;DHT22;26586;50.708;22.412;2023-03-23T03:58:48;16.50;51.10
40868;DHT22;26586;50.708;22.412;2023-03-23T04:01:15;16.60;50.90
40868;DHT22;26586;50.708;22.412;2023-03-23T04:03:42;16.50;50.00
40868;DHT22;26586;50.708;22.412;2023-03-23T04:06:08;16.50;50.90
40868;DHT22;26586;50.708;22.412;2023-03-23T04:08:34;16.50;50.20
40868;DHT22;26586;50.708;22.412;2023-03-23T04:11:01;16.50;50.00
40868;DHT22;26586;50.708;22.412;2023-03-23T04:13:27;16.40;49.70
40868;DHT22;26586;50.708;22.412;2023-03-23T04:15:53;16.50;49.90
40868;DHT22;26586;50.708;22.412;2023-03-23T04:18:19;16.50;49.90
40868;DHT22;26586;50.708;22.412;2023-03-23T04:20:46;16.50;49.60
40868;DHT22;26586;50.708;22.412;2023-03-23T04:23:13;16.50;49.80
40868;DHT22;26586;50.708;22.412;2023-03-23T04:25:39;16.50;51.50
40868;DHT22;26586;50.708;22.412;2023-03-23T04:28:07;16.50;49.90
40868;DHT22;26586;50.708;22.412;2023-03-23T04:30:35;16.40;49.50
40868;DHT22;26586;50.708;22.412;2023-03-23T04:33:02;16.50;49.60
40868;DHT22;26586;50.708;22.412;2023-03-23T04:35:28;16.40;49.30
40868;DHT22;26586;50.708;22.412;2023-03-23T04:37:55;16.40;49.40
40868;DHT22;26586;50.708;22.412;2023-03-23T04:40:22;16.40;49.50
40868;DHT22;26586;50.708;22.412;2023-03-23T04:42:49;16.40;50.40
40868;DHT22;26586;50.708;22.412;2023-03-23T04:45:20;16.40;50.80
40868;DHT22;26586;50.708;22.412;2023-03-23T04:47:50;16.40;50.60
40868;DHT22;26586;50.708;22.412;2023-03-23T04:50:23;16.30;50.70
40868;DHT22;26586;50.708;22.412;2023-03-23T04:52:50;16.30;50.80
40868;DHT22;26586;50.708;22.412;2023-03-23T04:55:17;16.30;51.10
40868;DHT22;26586;50.708;22.412;2023-03-23T04:57:44;16.30;52.90
40868;DHT22;26586;50.708;22.412;2023-03-23T05:00:10;16.30;52.90
40868;DHT22;26586;50.708;22.412;2023-03-23T05:02:40;16.40;52.30
40868;DHT22;26586;50.708;22.412;2023-03-23T05:05:07;16.30;52.30
40868;DHT22;26586;50.708;22.412;2023-03-23T05:07:33;16.30;52.60
40868;DHT22;26586;50.708;22.412;2023-03-23T05:09:59;16.30;52.90
40868;DHT22;26586;50.708;22.412;2023-03-23T05:12:26;16.30;53.30
40868;DHT22;26586;50.708;22.412;2023-03-23T05:14:52;16.30;53.10
40868;DHT22;26586;50.708;22.412;2023-03-23T05:17:18;16.30;53.20
40868;DHT22;26586;50.708;22.412;2023-03-23T05:19:44;16.30;52.60
40868;DHT22;26586;50.708;22.412;2023-03-23T05:22:13;16.30;52.00
40868;DHT22;26586;50.708;22.412;2023-03-23T05:24:40;16.40;52.60
40868;DHT22;26586;50.708;22.412;2023-03-23T05:27:06;16.30;52.10
40868;DHT22;26586;50.708;22.412;2023-03-23T05:29:33;16.40;52.70
40868;DHT22;26586;50.708;22.412;2023-03-23T05:32:02;16.40;53.60
40868;DHT22;26586;50.708;22.412;2023-03-23T05:34:29;16.40;54.10
40868;DHT22;26586;50.708;22.412;2023-03-23T05:36:58;16.40;52.90
40868;DHT22;26586;50.708;22.412;2023-03-23T05:39:24;16.40;53.40
40868;DHT22;26586;50.708;22.412;2023-03-23T05:41:51;16.50;52.50
40868;DHT22;26586;50.708;22.412;2023-03-23T05:44:17;16.50;52.80
40868;DHT22;26586;50.708;22.412;2023-03-23T05:46:43;16.60;52.40
40868;DHT22;26586;50.708;22.412;2023-03-23T05:49:09;16.60;53.20
40868;DHT22;26586;50.708;22.412;2023-03-23T05:51:35;16.60;56.00
40868;DHT22;26586;50.708;22.412;2023-03-23T05:54:01;16.60;56.50
40868;DHT22;26586;50.708;22.412;2023-03-23T05:56:27;16.70;58.90
40868;DHT22;26586;50.708;22.412;2023-03-23T05:58:56;16.70;59.40
40868;DHT22;26586;50.708;22.412;2023-03-23T06:01:22;16.70;58.70
40868;DHT22;26586;50.708;22.412;2023-03-23T06:03:49;16.80;59.00
40868;DHT22;26586;50.708;22.412;2023-03-23T06:06:17;16.80;58.60
40868;DHT22;26586;50.708;22.412;2023-03-23T06:08:43;16.90;58.30
40868;DHT22;26586;50.708;22.412;2023-03-23T06:11:10;16.90;59.00
40868;DHT22;26586;50.708;22.412;2023-03-23T06:13:36;16.90;58.90
40868;DHT22;26586;50.708;22.412;2023-03-23T06:16:02;17.00;60.30
40868;DHT22;26586;50.708;22.412;2023-03-23T06:18:29;17.00;60.00
40868;DHT22;26586;50.708;22.412;2023-03-23T06:20:59;17.00;60.80
40868;DHT22;26586;50.708;22.412;2023-03-23T06:23:26;17.10;60.50
40868;DHT22;26586;50.708;22.412;2023-03-23T06:25:56;17.10;61.50
40868;DHT22;26586;50.708;22.412;2023-03-23T06:28:23;17.10;60.10
40868;DHT22;26586;50.708;22.412;2023-03-23T06:30:50;17.10;61.10
40868;DHT22;26586;50.708;22.412;2023-03-23T06:33:16;17.10;60.70
40868;DHT22;26586;50.708;22.412;2023-03-23T06:35:43;17.20;59.40
40868;DHT22;26586;50.708;22.412;2023-03-23T06:38:09;17.20;60.10
40868;DHT22;26586;50.708;22.412;2023-03-23T06:40:35;17.20;60.40
40868;DHT22;26586;50.708;22.412;2023-03-23T06:43:04;17.20;60.00
40868;DHT22;26586;50.708;22.412;2023-03-23T06:45:30;17.20;61.10
40868;DHT22;26586;50.708;22.412;2023-03-23T06:47:56;17.30;60.10
40868;DHT22;26586;50.708;22.412;2023-03-23T06:50:23;17.30;56.50
40868;DHT22;26586;50.708;22.412;2023-03-23T06:52:49;17.30;57.90
40868;DHT22;26586;50.708;22.412;2023-03-23T06:55:17;17.30;59.10
40868;DHT22;26586;50.708;22.412;2023-03-23T06:57:43;17.40;57.60
40868;DHT22;26586;50.708;22.412;2023-03-23T07:00:11;17.40;60.00
40868;DHT22;26586;50.708;22.412;2023-03-23T07:02:41;17.40;58.70
40868;DHT22;26586;50.708;22.412;2023-03-23T07:05:08;17.50;58.10
40868;DHT22;26586;50.708;22.412;2023-03-23T07:07:35;17.50;58.20
40868;DHT22;26586;50.708;22.412;2023-03-23T07:10:02;17.50;57.60
40868;DHT22;26586;50.708;22.412;2023-03-23T07:12:28;17.60;57.10
40868;DHT22;26586;50.708;22.412;2023-03-23T07:14:55;17.60;58.20
40868;DHT22;26586;50.708;22.412;2023-03-23T07:17:21;17.70;57.90
40868;DHT22;26586;50.708;22.412;2023-03-23T07:19:47;17.70;60.30
40868;DHT22;26586;50.708;22.412;2023-03-23T07:22:13;17.80;61.50
40868;DHT22;26586;50.708;22.412;2023-03-23T07:24:39;17.80;57.50
40868;DHT22;26586;50.708;22.412;2023-03-23T07:27:05;17.90;58.20
40868;DHT22;26586;50.708;22.412;2023-03-23T07:29:31;17.90;58.20
40868;DHT22;26586;50.708;22.412;2023-03-23T07:32:00;18.00;59.10
40868;DHT22;26586;50.708;22.412;2023-03-23T07:34:27;18.00;60.00
40868;DHT22;26586;50.708;22.412;2023-03-23T07:36:53;18.00;58.90
40868;DHT22;26586;50.708;22.412;2023-03-23T07:39:19;18.10;59.80
40868;DHT22;26586;50.708;22.412;2023-03-23T07:41:45;18.20;56.80
40868;DHT22;26586;50.708;22.412;2023-03-23T07:44:12;18.20;57.60
40868;DHT22;26586;50.708;22.412;2023-03-23T07:46:38;18.30;58.40
40868;DHT22;26586;50.708;22.412;2023-03-23T07:49:04;18.40;57.10
40868;DHT22;26586;50.708;22.412;2023-03-23T07:51:31;18.40;54.60
40868;DHT22;26586;50.708;22.412;2023-03-23T07:53:58;18.50;55.30
40868;DHT22;26586;50.708;22.412;2023-03-23T07:56:24;18.60;54.10
40868;DHT22;26586;50.708;22.412;2023-03-23T07:58:50;18.60;53.80
40868;DHT22;26586;50.708;22.412;2023-03-23T08:01:17;18.60;54.30
40868;DHT22;26586;50.708;22.412;2023-03-23T08:03:44;18.70;54.40
40868;DHT22;26586;50.708;22.412;2023-03-23T08:06:10;18.70;53.30
40868;DHT22;26586;50.708;22.412;2023-03-23T08:08:36;18.80;52.90
40868;DHT22;26586;50.708;22.412;2023-03-23T08:11:03;18.80;52.20
40868;DHT22;26586;50.708;22.412;2023-03-23T08:13:29;18.90;53.30
40868;DHT22;26586;50.708;22.412;2023-03-23T08:15:55;18.90;54.90
40868;DHT22;26586;50.708;22.412;2023-03-23T08:18:22;18.90;54.60
40868;DHT22;26586;50.708;22.412;2023-03-23T08:20:48;19.00;54.20
40868;DHT22;26586;50.708;22.412;2023-03-23T08:23:14;19.00;52.70
40868;DHT22;26586;50.708;22.412;2023-03-23T08:25:42;19.10;52.20
40868;DHT22;26586;50.708;22.412;2023-03-23T08:28:09;19.10;51.40
40868;DHT22;26586;50.708;22.412;2023-03-23T08:30:35;19.10;51.30
40868;DHT22;26586;50.708;22.412;2023-03-23T08:33:03;19.20;54.30
40868;DHT22;26586;50.708;22.412;2023-03-23T08:35:30;19.20;53.10
40868;DHT22;26586;50.708;22.412;2023-03-23T08:37:56;19.20;52.00
40868;DHT22;26586;50.708;22.412;2023-03-23T08:40:23;19.20;51.80
40868;DHT22;26586;50.708;22.412;2023-03-23T08:42:50;19.30;52.60
40868;DHT22;26586;50.708;22.412;2023-03-23T08:45:18;19.30;54.70
40868;DHT22;26586;50.708;22.412;2023-03-23T08:47:45;19.30;54.80
40868;DHT22;26586;50.708;22.412;2023-03-23T08:50:13;19.30;50.70
40868;DHT22;26586;50.708;22.412;2023-03-23T08:52:40;19.40;50.90
40868;DHT22;26586;50.708;22.412;2023-03-23T08:55:06;19.40;50.90
40868;DHT22;26586;50.708;22.412;2023-03-23T08:57:35;19.40;51.70
40868;DHT22;26586;50.708;22.412;2023-03-23T09:00:05;19.40;51.00
40868;DHT22;26586;50.708;22.412;2023-03-23T09:02:48;19.50;50.30
40868;DHT22;26586;50.708;22.412;2023-03-23T09:05:15;19.50;53.70
40868;DHT22;26586;50.708;22.412;2023-03-23T09:07:43;19.60;49.60
40868;DHT22;26586;50.708;22.412;2023-03-23T09:10:10;19.60;50.60
40868;DHT22;26586;50.708;22.412;2023-03-23T09:12:36;19.60;52.90
40868;DHT22;26586;50.708;22.412;2023-03-23T09:15:03;19.70;51.50
40868;DHT22;26586;50.708;22.412;2023-03-23T09:17:47;19.70;49.90
40868;DHT22;26586;50.708;22.412;2023-03-23T09:20:14;19.80;49.80
40868;DHT22;26586;50.708;22.412;2023-03-23T09:22:46;19.80;50.10
40868;DHT22;26586;50.708;22.412;2023-03-23T09:25:13;19.80;51.80
40868;DHT22;26586;50.708;22.412;2023-03-23T09:27:40;19.90;49.80
40868;DHT22;26586;50.708;22.412;2023-03-23T09:30:07;19.90;49.60
40868;DHT22;26586;50.708;22.412;2023-03-23T09:32:34;20.00;48.90
40868;DHT22;26586;50.708;22.412;2023-03-23T09:35:04;20.00;49.50
40868;DHT22;26586;50.708;22.412;2023-03-23T09:37:32;20.10;49.60
40868;DHT22;26586;50.708;22.412;2023-03-23T09:40:00;20.10;51.60
40868;DHT22;26586;50.708;22.412;2023-03-23T09:42:30;20.10;48.90
40868;DHT22;26586;50.708;22.412;2023-03-23T09:55:30;20.30;48.20
40868;DHT22;26586;50.708;22.412;2023-03-23T09:57:59;20.30;49.70
40868;DHT22;26586;50.708;22.412;2023-03-23T10:00:33;20.40;47.30
40868;DHT22;26586;50.708;22.412;2023-03-23T10:03:16;20.40;51.50
40868;DHT22;26586;50.708;22.412;2023-03-23T10:05:50;20.50;49.40
40868;DHT22;26586;50.708;22.412;2023-03-23T10:08:17;20.50;48.20
40868;DHT22;26586;50.708;22.412;2023-03-23T10:15:45;20.60;49.10
40868;DHT22;26586;50.708;22.412;2023-03-23T10:18:27;20.60;48.10
40868;DHT22;26586;50.708;22.412;2023-03-23T10:20:58;20.60;47.20
40868;DHT22;26586;50.708;22.412;2023-03-23T10:23:46;20.70;48.00
40868;DHT22;26586;50.708;22.412;2023-03-23T10:28:54;20.70;47.90
40868;DHT22;26586;50.708;22.412;2023-03-23T10:31:23;20.70;47.00
40868;DHT22;26586;50.708;22.412;2023-03-23T10:33:51;20.70;47.30
40868;DHT22;26586;50.708;22.412;2023-03-23T10:39:14;20.80;48.10
40868;DHT22;26586;50.708;22.412;2023-03-23T10:41:41;20.80;48.50
40868;DHT22;26586;50.708;22.412;2023-03-23T10:44:26;20.80;48.70
40868;DHT22;26586;50.708;22.412;2023-03-23T10:46:57;20.80;48.80
40868;DHT22;26586;50.708;22.412;2023-03-23T10:49:28;20.80;48.30
40868;DHT22;26586;50.708;22.412;2023-03-23T10:51:59;20.90;48.50
40868;DHT22;26586;50.708;22.412;2023-03-23T10:54:31;20.90;48.40
40868;DHT22;26586;50.708;22.412;2023-03-23T10:56:57;20.90;49.60
40868;DHT22;26586;50.708;22.412;2023-03-23T10:59:29;20.90;48.30
40868;DHT22;26586;50.708;22.412;2023-03-23T11:01:59;20.90;48.40
40868;DHT22;26586;50.708;22.412;2023-03-23T11:04:28;20.90;48.50
40868;DHT22;26586;50.708;22.412;2023-03-23T11:06:58;20.90;47.40
40868;DHT22;26586;50.708;22.412;2023-03-23T11:09:37;20.90;47.70
40868;DHT22;26586;50.708;22.412;2023-03-23T11:12:04;20.90;48.20
40868;DHT22;26586;50.708;22.412;2023-03-23T11:14:31;20.90;47.70
40868;DHT22;26586;50.708;22.412;2023-03-23T11:17:00;21.00;46.70
40868;DHT22;26586;50.708;22.412;2023-03-23T11:19:28;21.00;47.20
40868;DHT22;26586;50.708;22.412;2023-03-23T11:21:58;21.00;49.00
40868;DHT22;26586;50.708;22.412;2023-03-23T11:24:25;21.00;49.50
40868;DHT22;26586;50.708;22.412;2023-03-23T11:26:51;21.00;48.40
40868;DHT22;26586;50.708;22.412;2023-03-23T11:29:20;21.00;47.00
40868;DHT22;26586;50.708;22.412;2023-03-23T11:31:47;21.00;46.50
40868;DHT22;26586;50.708;22.412;2023-03-23T11:34:19;21.00;46.80
40868;DHT22;26586;50.708;22.412;2023-03-23T11:36:50;21.10;48.00
40868;DHT22;26586;50.708;22.412;2023-03-23T11:41:50;21.10;49.50
40868;DHT22;26586;50.708;22.412;2023-03-23T11:44:16;21.10;48.80
40868;DHT22;26586;50.708;22.412;2023-03-23T11:49:18;21.10;48.90
40868;DHT22;26586;50.708;22.412;2023-03-23T11:51:50;21.10;48.10
40868;DHT22;26586;50.708;22.412;2023-03-23T11:56:44;21.20;47.90
40868;DHT22;26586;50.708;22.412;2023-03-23T11:59:15;21.20;48.00
40868;DHT22;26586;50.708;22.412;2023-03-23T12:01:55;21.20;47.90
40868;DHT22;26586;50.708;22.412;2023-03-23T12:07:14;21.20;48.80
40868;DHT22;26586;50.708;22.412;2023-03-23T12:12:34;21.30;49.40
40868;DHT22;26586;50.708;22.412;2023-03-23T12:15:18;21.30;49.10
40868;DHT22;26586;50.708;22.412;2023-03-23T12:17:48;21.40;48.90
40868;DHT22;26586;50.708;22.412;2023-03-23T12:20:42;21.40;48.90
40868;DHT22;26586;50.708;22.412;2023-03-23T12:25:42;21.40;48.90
40868;DHT22;26586;50.708;22.412;2023-03-23T12:28:13;21.50;49.20
40868;DHT22;26586;50.708;22.412;2023-03-23T12:38:20;21.50;49.00
40868;DHT22;26586;50.708;22.412;2023-03-23T12:43:26;21.60;49.30
40868;DHT22;26586;50.708;22.412;2023-03-23T12:48:39;21.60;49.60
40868;DHT22;26586;50.708;22.412;2023-03-23T12:51:19;21.60;49.70
40868;DHT22;26586;50.708;22.412;2023-03-23T12:59:06;21.70;50.30
40868;DHT22;26586;50.708;22.412;2023-03-23T13:01:36;21.80;50.20
40868;DHT22;26586;50.708;22.412;2023-03-23T13:04:14;21.70;50.20
40868;DHT22;26586;50.708;22.412;2023-03-23T13:06:42;21.80;50.20
40868;DHT22;26586;50.708;22.412;2023-03-23T13:11:41;21.80;50.50
40868;DHT22;26586;50.708;22.412;2023-03-23T13:14:22;21.90;50.20
40868;DHT22;26586;50.708;22.412;2023-03-23T13:24:26;21.90;47.90
40868;DHT22;26586;50.708;22.412;2023-03-23T13:26:53;21.90;47.90
40868;DHT22;26586;50.708;22.412;2023-03-23T13:29:23;22.00;48.00
40868;DHT22;26586;50.708;22.412;2023-03-23T13:31:51;22.00;48.20
40868;DHT22;26586;50.708;22.412;2023-03-23T13:34:21;22.00;48.30
40868;DHT22;26586;50.708;22.412;2023-03-23T13:37:04;22.00;48.40
40868;DHT22;26586;50.708;22.412;2023-03-23T13:39:31;22.00;48.40
40868;DHT22;26586;50.708;22.412;2023-03-23T13:44:25;22.00;47.60
40868;DHT22;26586;50.708;22.412;2023-03-23T13:47:15;22.00;47.10
40868;DHT22;26586;50.708;22.412;2023-03-23T13:49:47;22.00;45.90
40868;DHT22;26586;50.708;22.412;2023-03-23T13:52:22;22.00;45.50
40868;DHT22;26586;50.708;22.412;2023-03-23T13:54:49;22.00;46.10
40868;DHT22;26586;50.708;22.412;2023-03-23T13:57:26;22.00;44.70
40868;DHT22;26586;50.708;22.412;2023-03-23T13:59:59;22.00;45.50
40868;DHT22;26586;50.708;22.412;2023-03-23T14:05:07;22.00;45.00
40868;DHT22;26586;50.708;22.412;2023-03-23T14:07:52;22.00;44.90
40868;DHT22;26586;50.708;22.412;2023-03-23T14:10:18;21.90;45.40
40868;DHT22;26586;50.708;22.412;2023-03-23T14:12:44;21.90;45.30
40868;DHT22;26586;50.708;22.412;2023-03-23T14:15:12;21.90;44.90
40868;DHT22;26586;50.708;22.412;2023-03-23T14:17:43;21.90;45.00
40868;DHT22;26586;50.708;22.412;2023-03-23T14:20:15;21.90;44.90
40868;DHT22;26586;50.708;22.412;2023-03-23T14:22:45;21.90;45.00
40868;DHT22;26586;50.708;22.412;2023-03-23T14:25:16;21.90;45.10
40868;DHT22;26586;50.708;22.412;2023-03-23T14:27:42;21.90;44.60
40868;DHT22;26586;50.708;22.412;2023-03-23T14:30:12;21.90;43.70
40868;DHT22;26586;50.708;22.412;2023-03-23T14:32:39;21.90;43.70
40868;DHT22;26586;50.708;22.412;2023-03-23T14:35:13;21.90;43.60
40868;DHT22;26586;50.708;22.412;2023-03-23T14:37:42;21.90;43.70
40868;DHT22;26586;50.708;22.412;2023-03-23T14:40:15;21.90;43.70
40868;DHT22;26586;50.708;22.412;2023-03-23T14:42:42;21.90;43.40
40868;DHT22;26586;50.708;22.412;2023-03-23T14:45:11;21.90;43.30
40868;DHT22;26586;50.708;22.412;2023-03-23T14:47:40;21.80;43.60
40868;DHT22;26586;50.708;22.412;2023-03-23T14:53:12;21.80;44.20
40868;DHT22;26586;50.708;22.412;2023-03-23T14:55:41;21.90;44.40
40868;DHT22;26586;50.708;22.412;2023-03-23T14:58:08;21.80;44.30
40868;DHT22;26586;50.708;22.412;2023-03-23T15:00:36;21.80;44.90
40868;DHT22;26586;50.708;22.412;2023-03-23T15:03:04;21.90;44.20
40868;DHT22;26586;50.708;22.412;2023-03-23T15:05:32;21.90;43.90
40868;DHT22;26586;50.708;22.412;2023-03-23T15:08:00;21.90;43.60
40868;DHT22;26586;50.708;22.412;2023-03-23T15:10:28;21.90;43.50
40868;DHT22;26586;50.708;22.412;2023-03-23T15:12:54;21.90;43.30
40868;DHT22;26586;50.708;22.412;2023-03-23T15:15:30;21.80;43.30
40868;DHT22;26586;50.708;22.412;2023-03-23T15:17:57;21.80;43.20
40868;DHT22;26586;50.708;22.412;2023-03-23T15:22:50;21.80;43.10
40868;DHT22;26586;50.708;22.412;2023-03-23T15:27:52;21.80;43.60
40868;DHT22;26586;50.708;22.412;2023-03-23T15:32:45;21.80;43.70
40868;DHT22;26586;50.708;22.412;2023-03-23T15:35:15;21.80;44.70
40868;DHT22;26586;50.708;22.412;2023-03-23T15:37:42;21.80;45.10
40868;DHT22;26586;50.708;22.412;2023-03-23T15:40:16;21.80;45.30
40868;DHT22;26586;50.708;22.412;2023-03-23T15:42:42;21.80;46.10
40868;DHT22;26586;50.708;22.412;2023-03-23T15:47:44;21.70;46.00
40868;DHT22;26586;50.708;22.412;2023-03-23T15:50:17;21.70;46.60
40868;DHT22;26586;50.708;22.412;2023-03-23T15:52:44;21.80;48.80
40868;DHT22;26586;50.708;22.412;2023-03-23T15:57:53;21.70;47.20
40868;DHT22;26586;50.708;22.412;2023-03-23T16:00:20;21.70;47.10
40868;DHT22;26586;50.708;22.412;2023-03-23T16:02:47;21.70;47.90
40868;DHT22;26586;50.708;22.412;2023-03-23T16:05:14;21.70;48.00
40868;DHT22;26586;50.708;22.412;2023-03-23T16:07:41;21.70;47.50
40868;DHT22;26586;50.708;22.412;2023-03-23T16:10:10;21.70;46.30
40868;DHT22;26586;50.708;22.412;2023-03-23T16:12:39;21.70;46.70
40868;DHT22;26586;50.708;22.412;2023-03-23T16:15:05;21.60;48.10
40868;DHT22;26586;50.708;22.412;2023-03-23T16:17:33;21.70;46.40
40868;DHT22;26586;50.708;22.412;2023-03-23T16:19:59;21.60;46.00
40868;DHT22;26586;50.708;22.412;2023-03-23T16:22:25;21.70;46.70
40868;DHT22;26586;50.708;22.412;2023-03-23T16:24:51;21.60;44.90
40868;DHT22;26586;50.708;22.412;2023-03-23T16:27:17;21.70;45.10
40868;DHT22;26586;50.708;22.412;2023-03-23T16:29:46;21.60;45.10
40868;DHT22;26586;50.708;22.412;2023-03-23T16:32:12;21.60;45.50
40868;DHT22;26586;50.708;22.412;2023-03-23T16:34:38;21.60;44.70
40868;DHT22;26586;50.708;22.412;2023-03-23T16:37:04;21.60;46.30
40868;DHT22;26586;50.708;22.412;2023-03-23T16:39:31;21.60;45.80
40868;DHT22;26586;50.708;22.412;2023-03-23T16:41:58;21.60;46.70
40868;DHT22;26586;50.708;22.412;2023-03-23T16:44:23;21.60;47.60
40868;DHT22;26586;50.708;22.412;2023-03-23T16:46:50;21.60;48.10
40868;DHT22;26586;50.708;22.412;2023-03-23T16:49:16;21.60;48.40
40868;DHT22;26586;50.708;22.412;2023-03-23T16:51:42;21.60;48.50
40868;DHT22;26586;50.708;22.412;2023-03-23T16:54:08;21.60;50.40
40868;DHT22;26586;50.708;22.412;2023-03-23T16:56:35;21.60;50.80
40868;DHT22;26586;50.708;22.412;2023-03-23T16:59:01;21.60;50.80
40868;DHT22;26586;50.708;22.412;2023-03-23T17:01:27;21.60;49.70
40868;DHT22;26586;50.708;22.412;2023-03-23T17:03:53;21.60;50.70
40868;DHT22;26586;50.708;22.412;2023-03-23T17:06:20;21.60;52.40
40868;DHT22;26586;50.708;22.412;2023-03-23T17:08:46;21.60;51.90
40868;DHT22;26586;50.708;22.412;2023-03-23T17:11:12;21.60;52.00